Aberdeen, Mississippi
Current Conditions -  °F | °C
As of 10:55 PM on Monday 20 Oct 2014 (Local Time) from KM40 Reporting Station
Haze Haze  
Wind Chill: 11°   Ceiling: Unl
Heat Index: 11°   Visibility: 5mi
Dew Point:   Wind: 0mph
Humidity: 54%   Direction: NA
Pressure: 30.06"   Gusts: NA
Location:  33.82°N, 88.54°W
Report Text: KM40 210355Z AUTO 00000KT 5SM HZ CLR 11/02 A3006 RMK AO2
Loading
Personal Weather Stations






























Interactive Weather Map New forecast layout! Learn more

10-Day Weather Forecast

Advertisements
Track Severe Weather on mobile